Pagina principale
METAR-TAF:

METAR-TAF

Aeroporti :

Aeroporto di Pola

Pola, Croazia

latitudine: 44-54N, longitudine: 013-55E, altezza: 63 m

Osservazione

Il bollettino è stato emesso 17 minuti fa, alle 13:30 UTC
Vento 7 kt da ovest
Temperature 23°C
Umidità 73%
Pressione 1017 hPa
Visibilità 10 km o più
Poco nuvoloso ad un'altezza di 1500 ft
Nuvoloso ad un'altezza di 2000 ft

METAR: LDPL 271330Z 27007KT 9999 FEW015 BKN020 23/18 Q1017 NOSIG

Ora: 15:47 (13:47 UTC)

Previsione

Il bollettino è stato emesso 2 ore e 22 minuti fa, alle 11:25 UTC
Previsione valida dal 27 alle 12 UTC al 28 alle 12 UTC
Vento 2 kt da direzioni variabili
Visibilità 10 km o più
Nubi sparse ad un'altezza di 3500 ft
Temporaneamente
dal 27 alle 12 UTC al 27 alle 15 UTC
Vento 8 kt da ovest
Evoluzione graduale
dal 28 alle 06 UTC al 28 alle 08 UTC
Vento 8 kt da est/nord-est

TAF: LDPL 271125Z 2712/2812 VRB02KT 9999 SCT035 TX25/2811Z TN15/2804Z TEMPO 2712/2715 27008KT BECMG 2806/2808 06008KT

Osservazioni e previsioni meteorologiche di più di 4000 aeroporti (messaggi METAR e TAF).

Le stazioni disponibili sono rappresentate dai dischi gialli e rossi sulla carta.

Puntare il mouse per vedere il nome della stazione.

Clicca sopra per visualizzare le osservazioni e previsioni meteorologiche.

Per cambiare la mappa : fare clic sui pulsanti verdi con una croce nera per ingrandire, il pulsante verde con un trattino per diminuire, o sulla freccia verde per le mappe adiacenti.


METAR-TAF: